This is the latest recevied weather packets stored in our database for station/object AG1T-1. If no packets are shown the sender has not sent any weather packets the latest 10 day(s).
| Time | Temp. | Humidity | Pressure | Rain* | Wind** | Luminosity | Snow |
|---|---|---|---|---|---|---|---|
| 1777732803 | 8.89° C | 58% | 1025 hPa | 0 mm | - | 355 W/m² | - |
| 1777732203 | 8.33° C | 59% | 1025.1 hPa | 0 mm | - | 304 W/m² | - |
| 1777731603 | 7.78° C | 62% | 1025.2 hPa | 0 mm | - | 311 W/m² | - |
| 1777731003 | 6.67° C | 67% | 1025.2 hPa | 0 mm | - | 283 W/m² | - |
| 1777730403 | 5.56° C | 71% | 1025.3 hPa | 0 mm | - | 248 W/m² | - |
| 1777729803 | 4.44° C | 74% | 1025.2 hPa | 0 mm | - | 218 W/m² | - |
| 1777729203 | 3.89° C | 76% | 1025.2 hPa | 0 mm | - | 183 W/m² | - |
| 1777728603 | 3.33° C | 79% | 1025.1 hPa | 0 mm | - | 144 W/m² | - |
| 1777728003 | 2.78° C | 80% | 1025 hPa | 0 mm | - | 109 W/m² | - |
| 1777727403 | 2.22° C | 80% | 1024.9 hPa | 0 mm | - | 76 W/m² | - |
| 1777726803 | 2.22° C | 80% | 1024.8 hPa | 0 mm | - | 16 W/m² | - |
| 1777726203 | 1.67° C | 80% | 1024.7 hPa | 0 mm | - | 16 W/m² | - |
| 1777725603 | 1.67° C | 80% | 1024.7 hPa | 0 mm | - | 12 W/m² | - |
| 1777725003 | 1.67° C | 79% | 1024.6 hPa | 0 mm | - | 9 W/m² | - |
| 1777724403 | 2.22° C | 79% | 1024.6 hPa | 0 mm | - | 0 W/m² | - |
| 1777723803 | 2.22° C | 77% | 1024.5 hPa | 0 mm | - | 0 W/m² | - |
| 1777723203 | 2.22° C | 77% | 1024.5 hPa | 0 mm | - | 0 W/m² | - |
| 1777722603 | 2.22° C | 76% | 1024.4 hPa | 0 mm | - | 0 W/m² | - |
| 1777722003 | 2.78° C | 75% | 1024.4 hPa | 0 mm | - | 0 W/m² | - |
| 1777721403 | 2.78° C | 75% | 1024.4 hPa | 0 mm | - | 0 W/m² | - |
| 1777720803 | 3.33° C | 73% | 1024.4 hPa | 0 mm | - | 0 W/m² | - |
| 1777720203 | 3.33° C | 72% | 1024.4 hPa | 0 mm | - | 0 W/m² | - |
| 1777719603 | 3.33° C | 71% | 1024.4 hPa | 0 mm | - | 0 W/m² | - |
| 1777719003 | 3.89° C | 71% | 1024.4 hPa | 0 mm | - | 0 W/m² | - |
| 1777718403 | 3.89° C | 70% | 1024.5 hPa | 0 mm | - | 0 W/m² | - |
* Rain latest hour (hover to see other rain measurements)
** Current wind speed in m/s (hover to see current wind gust speed)